sensor_id;sensor_type;location;lat;lon;timestamp;P1;durP1;ratioP1;P2;durP2;ratioP2
16320;SDS011;8269;50.990;4.494;2023-04-15T00:00:48;8.53;;;4.30;;
16320;SDS011;8269;50.990;4.494;2023-04-15T00:03:15;6.17;;;3.93;;
16320;SDS011;8269;50.990;4.494;2023-04-15T00:05:41;9.93;;;4.10;;
16320;SDS011;8269;50.990;4.494;2023-04-15T00:08:07;7.40;;;4.10;;
16320;SDS011;8269;50.990;4.494;2023-04-15T00:10:32;6.67;;;4.10;;
16320;SDS011;8269;50.990;4.494;2023-04-15T00:12:58;7.90;;;4.17;;
16320;SDS011;8269;50.990;4.494;2023-04-15T00:15:24;9.10;;;4.40;;
16320;SDS011;8269;50.990;4.494;2023-04-15T00:17:51;9.53;;;4.03;;
16320;SDS011;8269;50.990;4.494;2023-04-15T00:20:16;10.60;;;4.20;;
16320;SDS011;8269;50.990;4.494;2023-04-15T00:22:42;9.73;;;4.27;;
16320;SDS011;8269;50.990;4.494;2023-04-15T00:25:08;6.67;;;4.30;;
16320;SDS011;8269;50.990;4.494;2023-04-15T00:27:33;7.90;;;4.50;;
16320;SDS011;8269;50.990;4.494;2023-04-15T00:29:59;6.90;;;4.07;;
16320;SDS011;8269;50.990;4.494;2023-04-15T00:32:24;6.40;;;4.20;;
16320;SDS011;8269;50.990;4.494;2023-04-15T00:34:50;6.83;;;4.03;;
16320;SDS011;8269;50.990;4.494;2023-04-15T00:37:16;8.37;;;4.57;;
16320;SDS011;8269;50.990;4.494;2023-04-15T00:39:42;7.00;;;4.67;;
16320;SDS011;8269;50.990;4.494;2023-04-15T00:42:08;11.30;;;4.97;;
16320;SDS011;8269;50.990;4.494;2023-04-15T00:44:34;8.83;;;4.00;;
16320;SDS011;8269;50.990;4.494;2023-04-15T00:47:00;7.50;;;4.10;;
16320;SDS011;8269;50.990;4.494;2023-04-15T00:49:27;7.57;;;4.10;;
16320;SDS011;8269;50.990;4.494;2023-04-15T00:51:53;9.37;;;4.83;;
16320;SDS011;8269;50.990;4.494;2023-04-15T00:54:19;7.43;;;4.07;;
16320;SDS011;8269;50.990;4.494;2023-04-15T00:56:45;9.47;;;4.80;;
16320;SDS011;8269;50.990;4.494;2023-04-15T00:59:11;7.10;;;4.63;;
16320;SDS011;8269;50.990;4.494;2023-04-15T01:01:38;9.63;;;5.00;;
16320;SDS011;8269;50.990;4.494;2023-04-15T01:04:05;9.87;;;5.07;;
16320;SDS011;8269;50.990;4.494;2023-04-15T01:06:31;9.00;;;5.00;;
16320;SDS011;8269;50.990;4.494;2023-04-15T01:08:57;8.87;;;4.63;;
16320;SDS011;8269;50.990;4.494;2023-04-15T01:11:24;9.83;;;5.13;;
16320;SDS011;8269;50.990;4.494;2023-04-15T01:13:50;9.17;;;5.60;;
16320;SDS011;8269;50.990;4.494;2023-04-15T01:16:17;10.23;;;4.67;;
16320;SDS011;8269;50.990;4.494;2023-04-15T01:18:43;8.33;;;4.93;;
16320;SDS011;8269;50.990;4.494;2023-04-15T01:21:09;8.20;;;5.13;;
16320;SDS011;8269;50.990;4.494;2023-04-15T01:23:35;7.63;;;4.67;;
16320;SDS011;8269;50.990;4.494;2023-04-15T01:26:04;6.50;;;4.63;;
16320;SDS011;8269;50.990;4.494;2023-04-15T01:28:32;8.83;;;4.53;;
16320;SDS011;8269;50.990;4.494;2023-04-15T01:31:12;6.77;;;4.50;;
16320;SDS011;8269;50.990;4.494;2023-04-15T01:33:39;7.80;;;4.77;;
16320;SDS011;8269;50.990;4.494;2023-04-15T01:36:06;7.27;;;5.23;;
16320;SDS011;8269;50.990;4.494;2023-04-15T01:38:34;8.07;;;5.03;;
16320;SDS011;8269;50.990;4.494;2023-04-15T01:41:00;8.17;;;5.17;;
16320;SDS011;8269;50.990;4.494;2023-04-15T01:43:26;9.57;;;5.27;;
16320;SDS011;8269;50.990;4.494;2023-04-15T01:45:52;8.03;;;4.67;;
16320;SDS011;8269;50.990;4.494;2023-04-15T01:48:18;9.20;;;5.17;;
16320;SDS011;8269;50.990;4.494;2023-04-15T01:50:43;9.97;;;5.33;;
16320;SDS011;8269;50.990;4.494;2023-04-15T01:53:09;9.80;;;5.80;;
16320;SDS011;8269;50.990;4.494;2023-04-15T01:55:35;8.63;;;5.87;;
16320;SDS011;8269;50.990;4.494;2023-04-15T01:58:01;9.47;;;5.87;;
16320;SDS011;8269;50.990;4.494;2023-04-15T02:00:27;9.53;;;6.03;;
16320;SDS011;8269;50.990;4.494;2023-04-15T02:02:53;8.03;;;5.43;;
16320;SDS011;8269;50.990;4.494;2023-04-15T02:05:19;9.63;;;5.83;;
16320;SDS011;8269;50.990;4.494;2023-04-15T02:07:45;10.70;;;5.67;;
16320;SDS011;8269;50.990;4.494;2023-04-15T02:10:10;7.33;;;5.97;;
16320;SDS011;8269;50.990;4.494;2023-04-15T02:12:40;9.57;;;6.10;;
16320;SDS011;8269;50.990;4.494;2023-04-15T02:15:06;9.57;;;5.53;;
16320;SDS011;8269;50.990;4.494;2023-04-15T02:17:33;11.70;;;6.27;;
16320;SDS011;8269;50.990;4.494;2023-04-15T02:19:59;8.50;;;5.53;;
16320;SDS011;8269;50.990;4.494;2023-04-15T02:22:25;8.33;;;5.97;;
16320;SDS011;8269;50.990;4.494;2023-04-15T02:24:51;9.10;;;6.27;;
16320;SDS011;8269;50.990;4.494;2023-04-15T02:27:17;8.40;;;6.40;;
16320;SDS011;8269;50.990;4.494;2023-04-15T02:29:43;9.10;;;6.40;;
16320;SDS011;8269;50.990;4.494;2023-04-15T02:32:10;9.87;;;6.33;;
16320;SDS011;8269;50.990;4.494;2023-04-15T02:34:37;7.30;;;5.80;;
16320;SDS011;8269;50.990;4.494;2023-04-15T02:37:05;8.73;;;6.57;;
16320;SDS011;8269;50.990;4.494;2023-04-15T02:39:31;10.07;;;6.53;;
16320;SDS011;8269;50.990;4.494;2023-04-15T02:41:57;9.17;;;6.83;;
16320;SDS011;8269;50.990;4.494;2023-04-15T02:44:24;9.77;;;6.60;;
16320;SDS011;8269;50.990;4.494;2023-04-15T02:46:50;9.00;;;6.70;;
16320;SDS011;8269;50.990;4.494;2023-04-15T02:49:17;12.13;;;7.00;;
16320;SDS011;8269;50.990;4.494;2023-04-15T02:51:43;8.67;;;6.47;;
16320;SDS011;8269;50.990;4.494;2023-04-15T02:54:13;10.43;;;7.10;;
16320;SDS011;8269;50.990;4.494;2023-04-15T02:56:43;9.73;;;5.30;;
16320;SDS011;8269;50.990;4.494;2023-04-15T02:59:08;8.70;;;5.57;;
16320;SDS011;8269;50.990;4.494;2023-04-15T03:01:37;8.37;;;5.37;;
16320;SDS011;8269;50.990;4.494;2023-04-15T03:04:02;7.90;;;4.93;;
16320;SDS011;8269;50.990;4.494;2023-04-15T03:06:28;7.57;;;4.90;;
16320;SDS011;8269;50.990;4.494;2023-04-15T03:08:54;8.93;;;5.30;;
16320;SDS011;8269;50.990;4.494;2023-04-15T03:11:20;8.17;;;4.50;;
16320;SDS011;8269;50.990;4.494;2023-04-15T03:13:46;8.73;;;5.03;;
16320;SDS011;8269;50.990;4.494;2023-04-15T03:16:12;9.73;;;5.07;;
16320;SDS011;8269;50.990;4.494;2023-04-15T03:18:38;7.63;;;4.60;;
16320;SDS011;8269;50.990;4.494;2023-04-15T03:21:03;8.33;;;5.03;;
16320;SDS011;8269;50.990;4.494;2023-04-15T03:23:30;9.87;;;5.47;;
16320;SDS011;8269;50.990;4.494;2023-04-15T03:26:00;10.73;;;5.33;;
16320;SDS011;8269;50.990;4.494;2023-04-15T03:28:26;10.20;;;5.20;;
16320;SDS011;8269;50.990;4.494;2023-04-15T03:30:53;7.20;;;4.87;;
16320;SDS011;8269;50.990;4.494;2023-04-15T03:33:19;9.03;;;5.17;;
16320;SDS011;8269;50.990;4.494;2023-04-15T03:35:45;7.30;;;5.43;;
16320;SDS011;8269;50.990;4.494;2023-04-15T03:38:10;7.50;;;5.37;;
16320;SDS011;8269;50.990;4.494;2023-04-15T03:40:36;10.17;;;6.17;;
16320;SDS011;8269;50.990;4.494;2023-04-15T03:43:02;9.97;;;5.97;;
16320;SDS011;8269;50.990;4.494;2023-04-15T03:45:29;9.87;;;5.40;;
16320;SDS011;8269;50.990;4.494;2023-04-15T03:47:54;9.37;;;6.17;;
16320;SDS011;8269;50.990;4.494;2023-04-15T03:50:20;10.63;;;5.87;;
16320;SDS011;8269;50.990;4.494;2023-04-15T03:52:46;11.13;;;5.80;;
16320;SDS011;8269;50.990;4.494;2023-04-15T03:55:11;10.90;;;6.13;;
16320;SDS011;8269;50.990;4.494;2023-04-15T03:57:38;9.13;;;5.90;;
16320;SDS011;8269;50.990;4.494;2023-04-15T04:00:04;8.27;;;5.97;;
16320;SDS011;8269;50.990;4.494;2023-04-15T04:02:31;9.83;;;6.70;;
16320;SDS011;8269;50.990;4.494;2023-04-15T04:04:56;10.43;;;6.00;;
16320;SDS011;8269;50.990;4.494;2023-04-15T04:07:22;12.60;;;6.10;;
16320;SDS011;8269;50.990;4.494;2023-04-15T04:09:48;10.27;;;6.03;;
16320;SDS011;8269;50.990;4.494;2023-04-15T04:12:14;10.53;;;6.13;;
16320;SDS011;8269;50.990;4.494;2023-04-15T04:14:40;12.37;;;6.33;;
16320;SDS011;8269;50.990;4.494;2023-04-15T04:17:06;11.13;;;5.93;;
16320;SDS011;8269;50.990;4.494;2023-04-15T04:19:32;11.50;;;6.00;;
16320;SDS011;8269;50.990;4.494;2023-04-15T04:21:57;10.67;;;6.40;;
16320;SDS011;8269;50.990;4.494;2023-04-15T04:24:23;9.90;;;6.53;;
16320;SDS011;8269;50.990;4.494;2023-04-15T04:26:50;12.50;;;6.27;;
16320;SDS011;8269;50.990;4.494;2023-04-15T04:29:16;10.20;;;6.77;;
16320;SDS011;8269;50.990;4.494;2023-04-15T04:31:41;12.30;;;6.90;;
16320;SDS011;8269;50.990;4.494;2023-04-15T04:34:07;10.23;;;6.53;;
16320;SDS011;8269;50.990;4.494;2023-04-15T04:36:32;12.67;;;7.23;;
16320;SDS011;8269;50.990;4.494;2023-04-15T04:38:58;10.63;;;6.60;;
16320;SDS011;8269;50.990;4.494;2023-04-15T04:41:25;9.30;;;6.20;;
16320;SDS011;8269;50.990;4.494;2023-04-15T04:43:51;11.27;;;6.10;;
16320;SDS011;8269;50.990;4.494;2023-04-15T04:46:16;10.20;;;6.60;;
16320;SDS011;8269;50.990;4.494;2023-04-15T04:48:42;9.70;;;6.03;;
16320;SDS011;8269;50.990;4.494;2023-04-15T04:51:08;10.07;;;6.70;;
16320;SDS011;8269;50.990;4.494;2023-04-15T04:53:34;9.43;;;6.93;;
16320;SDS011;8269;50.990;4.494;2023-04-15T04:56:01;9.17;;;6.43;;
16320;SDS011;8269;50.990;4.494;2023-04-15T04:58:27;9.73;;;6.43;;
16320;SDS011;8269;50.990;4.494;2023-04-15T05:00:52;8.37;;;6.63;;
16320;SDS011;8269;50.990;4.494;2023-04-15T05:03:18;8.30;;;6.37;;
16320;SDS011;8269;50.990;4.494;2023-04-15T05:05:45;9.83;;;6.20;;
16320;SDS011;8269;50.990;4.494;2023-04-15T05:08:10;12.83;;;7.67;;
16320;SDS011;8269;50.990;4.494;2023-04-15T05:10:36;11.87;;;6.80;;
16320;SDS011;8269;50.990;4.494;2023-04-15T05:13:02;11.10;;;6.60;;
16320;SDS011;8269;50.990;4.494;2023-04-15T05:15:27;11.13;;;6.80;;
16320;SDS011;8269;50.990;4.494;2023-04-15T05:17:53;11.63;;;7.03;;
16320;SDS011;8269;50.990;4.494;2023-04-15T05:20:19;10.07;;;6.70;;
16320;SDS011;8269;50.990;4.494;2023-04-15T05:22:44;10.63;;;6.83;;
16320;SDS011;8269;50.990;4.494;2023-04-15T05:25:10;9.57;;;6.37;;
16320;SDS011;8269;50.990;4.494;2023-04-15T05:27:36;11.93;;;8.13;;
16320;SDS011;8269;50.990;4.494;2023-04-15T05:30:02;10.03;;;6.73;;
16320;SDS011;8269;50.990;4.494;2023-04-15T05:32:28;9.17;;;6.07;;
16320;SDS011;8269;50.990;4.494;2023-04-15T05:34:53;8.87;;;5.43;;
16320;SDS011;8269;50.990;4.494;2023-04-15T05:37:19;10.47;;;6.20;;
16320;SDS011;8269;50.990;4.494;2023-04-15T05:39:47;8.73;;;6.17;;
16320;SDS011;8269;50.990;4.494;2023-04-15T05:42:13;9.80;;;6.30;;
16320;SDS011;8269;50.990;4.494;2023-04-15T05:44:39;10.63;;;6.23;;
16320;SDS011;8269;50.990;4.494;2023-04-15T05:47:05;11.37;;;6.17;;
16320;SDS011;8269;50.990;4.494;2023-04-15T05:49:31;8.20;;;6.13;;
16320;SDS011;8269;50.990;4.494;2023-04-15T05:51:57;11.97;;;9.03;;
16320;SDS011;8269;50.990;4.494;2023-04-15T05:54:23;19.30;;;8.37;;
16320;SDS011;8269;50.990;4.494;2023-04-15T05:56:48;11.37;;;7.30;;
16320;SDS011;8269;50.990;4.494;2023-04-15T05:59:14;10.93;;;6.70;;
16320;SDS011;8269;50.990;4.494;2023-04-15T06:01:40;12.57;;;8.93;;
16320;SDS011;8269;50.990;4.494;2023-04-15T06:04:05;7.77;;;6.03;;
16320;SDS011;8269;50.990;4.494;2023-04-15T06:06:31;12.00;;;6.60;;
16320;SDS011;8269;50.990;4.494;2023-04-15T06:08:57;12.17;;;6.57;;
16320;SDS011;8269;50.990;4.494;2023-04-15T06:11:23;10.73;;;6.03;;
16320;SDS011;8269;50.990;4.494;2023-04-15T06:13:49;11.50;;;6.00;;
16320;SDS011;8269;50.990;4.494;2023-04-15T06:16:14;10.00;;;6.57;;
16320;SDS011;8269;50.990;4.494;2023-04-15T06:18:40;14.90;;;6.17;;
16320;SDS011;8269;50.990;4.494;2023-04-15T06:21:05;10.80;;;6.30;;
16320;SDS011;8269;50.990;4.494;2023-04-15T06:23:35;11.60;;;6.30;;
16320;SDS011;8269;50.990;4.494;2023-04-15T06:26:01;11.23;;;6.93;;
16320;SDS011;8269;50.990;4.494;2023-04-15T06:28:26;12.07;;;6.40;;
16320;SDS011;8269;50.990;4.494;2023-04-15T06:30:52;11.13;;;6.23;;
16320;SDS011;8269;50.990;4.494;2023-04-15T06:33:19;9.33;;;6.87;;
16320;SDS011;8269;50.990;4.494;2023-04-15T06:35:45;9.53;;;6.23;;
16320;SDS011;8269;50.990;4.494;2023-04-15T06:38:11;10.20;;;6.53;;
16320;SDS011;8269;50.990;4.494;2023-04-15T06:40:38;9.97;;;6.27;;
16320;SDS011;8269;50.990;4.494;2023-04-15T06:43:03;11.70;;;6.40;;
16320;SDS011;8269;50.990;4.494;2023-04-15T06:45:29;12.67;;;6.87;;
16320;SDS011;8269;50.990;4.494;2023-04-15T06:47:55;10.13;;;6.87;;
16320;SDS011;8269;50.990;4.494;2023-04-15T06:50:21;11.53;;;6.93;;
16320;SDS011;8269;50.990;4.494;2023-04-15T06:52:46;14.07;;;8.97;;
16320;SDS011;8269;50.990;4.494;2023-04-15T06:55:12;12.23;;;8.20;;
16320;SDS011;8269;50.990;4.494;2023-04-15T06:57:38;11.73;;;8.07;;
16320;SDS011;8269;50.990;4.494;2023-04-15T07:00:04;12.40;;;8.23;;
16320;SDS011;8269;50.990;4.494;2023-04-15T07:02:31;13.07;;;8.90;;
16320;SDS011;8269;50.990;4.494;2023-04-15T07:04:57;14.40;;;9.60;;
16320;SDS011;8269;50.990;4.494;2023-04-15T07:07:23;11.80;;;8.47;;
16320;SDS011;8269;50.990;4.494;2023-04-15T07:09:49;12.50;;;9.07;;
16320;SDS011;8269;50.990;4.494;2023-04-15T07:12:16;12.50;;;8.97;;
16320;SDS011;8269;50.990;4.494;2023-04-15T07:14:42;15.77;;;9.60;;
16320;SDS011;8269;50.990;4.494;2023-04-15T07:17:08;12.30;;;9.83;;
16320;SDS011;8269;50.990;4.494;2023-04-15T07:19:33;12.53;;;10.07;;
16320;SDS011;8269;50.990;4.494;2023-04-15T07:21:59;12.73;;;9.97;;
16320;SDS011;8269;50.990;4.494;2023-04-15T07:24:25;15.53;;;10.40;;
16320;SDS011;8269;50.990;4.494;2023-04-15T07:26:52;13.63;;;9.90;;
16320;SDS011;8269;50.990;4.494;2023-04-15T07:29:19;14.57;;;10.73;;
16320;SDS011;8269;50.990;4.494;2023-04-15T07:31:44;15.30;;;10.93;;
16320;SDS011;8269;50.990;4.494;2023-04-15T07:34:10;14.43;;;11.85;;
16320;SDS011;8269;50.990;4.494;2023-04-15T07:36:36;14.13;;;10.82;;
16320;SDS011;8269;50.990;4.494;2023-04-15T07:39:01;18.05;;;12.20;;
16320;SDS011;8269;50.990;4.494;2023-04-15T07:41:28;16.80;;;12.02;;
16320;SDS011;8269;50.990;4.494;2023-04-15T07:43:54;17.63;;;12.00;;
16320;SDS011;8269;50.990;4.494;2023-04-15T07:46:20;13.85;;;11.98;;
16320;SDS011;8269;50.990;4.494;2023-04-15T07:48:48;12.32;;;10.52;;
16320;SDS011;8269;50.990;4.494;2023-04-15T07:51:13;19.98;;;12.20;;
16320;SDS011;8269;50.990;4.494;2023-04-15T07:53:39;15.40;;;11.00;;
16320;SDS011;8269;50.990;4.494;2023-04-15T07:56:04;15.82;;;11.82;;
16320;SDS011;8269;50.990;4.494;2023-04-15T07:58:30;14.57;;;12.17;;
16320;SDS011;8269;50.990;4.494;2023-04-15T08:00:56;15.73;;;12.45;;
16320;SDS011;8269;50.990;4.494;2023-04-15T08:03:21;17.40;;;11.63;;
16320;SDS011;8269;50.990;4.494;2023-04-15T08:05:47;13.63;;;12.23;;
16320;SDS011;8269;50.990;4.494;2023-04-15T08:08:13;16.05;;;11.73;;
16320;SDS011;8269;50.990;4.494;2023-04-15T08:10:39;15.15;;;12.18;;
16320;SDS011;8269;50.990;4.494;2023-04-15T08:13:04;14.50;;;11.70;;
16320;SDS011;8269;50.990;4.494;2023-04-15T08:15:30;14.93;;;12.10;;
16320;SDS011;8269;50.990;4.494;2023-04-15T08:17:57;12.15;;;10.82;;
16320;SDS011;8269;50.990;4.494;2023-04-15T08:20:24;14.65;;;12.00;;
16320;SDS011;8269;50.990;4.494;2023-04-15T08:22:50;15.48;;;11.77;;
16320;SDS011;8269;50.990;4.494;2023-04-15T08:25:16;16.45;;;11.95;;
16320;SDS011;8269;50.990;4.494;2023-04-15T08:27:43;13.35;;;10.20;;
16320;SDS011;8269;50.990;4.494;2023-04-15T08:30:09;11.50;;;7.30;;
16320;SDS011;8269;50.990;4.494;2023-04-15T08:32:35;10.00;;;6.93;;
16320;SDS011;8269;50.990;4.494;2023-04-15T08:35:01;10.13;;;7.00;;
16320;SDS011;8269;50.990;4.494;2023-04-15T08:37:27;9.50;;;7.35;;
16320;SDS011;8269;50.990;4.494;2023-04-15T08:39:53;12.30;;;7.53;;
16320;SDS011;8269;50.990;4.494;2023-04-15T08:42:21;10.00;;;7.53;;
16320;SDS011;8269;50.990;4.494;2023-04-15T08:44:51;10.52;;;7.82;;
16320;SDS011;8269;50.990;4.494;2023-04-15T08:47:19;10.35;;;7.88;;
16320;SDS011;8269;50.990;4.494;2023-04-15T08:49:46;9.13;;;7.90;;
16320;SDS011;8269;50.990;4.494;2023-04-15T08:52:17;10.52;;;8.00;;
16320;SDS011;8269;50.990;4.494;2023-04-15T08:54:44;13.70;;;7.95;;
16320;SDS011;8269;50.990;4.494;2023-04-15T08:57:09;11.23;;;7.53;;
16320;SDS011;8269;50.990;4.494;2023-04-15T08:59:36;11.80;;;8.20;;
16320;SDS011;8269;50.990;4.494;2023-04-15T09:02:02;9.85;;;7.97;;
16320;SDS011;8269;50.990;4.494;2023-04-15T09:04:28;10.65;;;7.70;;
16320;SDS011;8269;50.990;4.494;2023-04-15T09:06:54;9.48;;;6.78;;
16320;SDS011;8269;50.990;4.494;2023-04-15T09:09:21;8.55;;;5.65;;
16320;SDS011;8269;50.990;4.494;2023-04-15T09:11:46;9.07;;;6.20;;
16320;SDS011;8269;50.990;4.494;2023-04-15T09:14:14;8.45;;;6.28;;
16320;SDS011;8269;50.990;4.494;2023-04-15T09:16:55;12.18;;;7.38;;
16320;SDS011;8269;50.990;4.494;2023-04-15T09:19:25;10.00;;;7.68;;
16320;SDS011;8269;50.990;4.494;2023-04-15T09:21:54;10.63;;;6.80;;
16320;SDS011;8269;50.990;4.494;2023-04-15T09:24:23;10.25;;;7.57;;
16320;SDS011;8269;50.990;4.494;2023-04-15T09:26:52;9.80;;;8.20;;
16320;SDS011;8269;50.990;4.494;2023-04-15T09:29:23;9.25;;;7.82;;
16320;SDS011;8269;50.990;4.494;2023-04-15T09:31:49;9.30;;;7.75;;
16320;SDS011;8269;50.990;4.494;2023-04-15T09:34:15;11.02;;;8.00;;
16320;SDS011;8269;50.990;4.494;2023-04-15T09:39:10;10.45;;;7.75;;
16320;SDS011;8269;50.990;4.494;2023-04-15T09:41:36;12.02;;;8.30;;
16320;SDS011;8269;50.990;4.494;2023-04-15T09:44:01;9.82;;;7.00;;
16320;SDS011;8269;50.990;4.494;2023-04-15T10:16:00;5.80;;;4.00;;
16320;SDS011;8269;50.990;4.494;2023-04-15T10:21:07;6.60;;;3.40;;
16320;SDS011;8269;50.990;4.494;2023-04-15T10:23:33;7.47;;;3.58;;
16320;SDS011;8269;50.990;4.494;2023-04-15T10:26:00;7.82;;;3.17;;
16320;SDS011;8269;50.990;4.494;2023-04-15T10:28:26;6.20;;;4.00;;
16320;SDS011;8269;50.990;4.494;2023-04-15T10:40:37;7.60;;;4.95;;
16320;SDS011;8269;50.990;4.494;2023-04-15T10:47:56;7.20;;;4.50;;
16320;SDS011;8269;50.990;4.494;2023-04-15T10:50:24;6.53;;;4.93;;
16320;SDS011;8269;50.990;4.494;2023-04-15T10:52:52;6.95;;;4.53;;
16320;SDS011;8269;50.990;4.494;2023-04-15T10:55:19;5.90;;;5.00;;
16320;SDS011;8269;50.990;4.494;2023-04-15T10:57:45;6.68;;;4.63;;
16320;SDS011;8269;50.990;4.494;2023-04-15T11:00:15;6.60;;;4.25;;
16320;SDS011;8269;50.990;4.494;2023-04-15T11:02:43;6.63;;;3.63;;
16320;SDS011;8269;50.990;4.494;2023-04-15T11:05:12;6.07;;;3.78;;
16320;SDS011;8269;50.990;4.494;2023-04-15T11:07:54;6.72;;;3.75;;
16320;SDS011;8269;50.990;4.494;2023-04-15T11:20:39;6.80;;;3.80;;
16320;SDS011;8269;50.990;4.494;2023-04-15T11:23:08;6.93;;;3.72;;
16320;SDS011;8269;50.990;4.494;2023-04-15T11:25:35;6.28;;;3.95;;
16320;SDS011;8269;50.990;4.494;2023-04-15T11:28:03;5.55;;;4.05;;
16320;SDS011;8269;50.990;4.494;2023-04-15T11:30:34;5.93;;;4.00;;
16320;SDS011;8269;50.990;4.494;2023-04-15T11:33:05;6.60;;;5.15;;
16320;SDS011;8269;50.990;4.494;2023-04-15T11:35:33;7.70;;;4.80;;
16320;SDS011;8269;50.990;4.494;2023-04-15T11:38:12;6.15;;;4.30;;
16320;SDS011;8269;50.990;4.494;2023-04-15T11:40:39;6.30;;;4.90;;
16320;SDS011;8269;50.990;4.494;2023-04-15T11:43:07;4.65;;;2.90;;
16320;SDS011;8269;50.990;4.494;2023-04-15T11:45:33;4.63;;;2.72;;
16320;SDS011;8269;50.990;4.494;2023-04-15T11:48:06;6.78;;;3.17;;
16320;SDS011;8269;50.990;4.494;2023-04-15T11:50:33;5.45;;;3.20;;
16320;SDS011;8269;50.990;4.494;2023-04-15T11:53:04;5.03;;;2.85;;
16320;SDS011;8269;50.990;4.494;2023-04-15T11:55:30;5.53;;;2.80;;
16320;SDS011;8269;50.990;4.494;2023-04-15T12:00:34;4.82;;;2.78;;
16320;SDS011;8269;50.990;4.494;2023-04-15T12:03:16;4.70;;;2.80;;
16320;SDS011;8269;50.990;4.494;2023-04-15T12:11:14;4.55;;;2.60;;
16320;SDS011;8269;50.990;4.494;2023-04-15T12:13:44;4.05;;;2.20;;
16320;SDS011;8269;50.990;4.494;2023-04-15T12:16:17;5.00;;;2.50;;
16320;SDS011;8269;50.990;4.494;2023-04-15T12:18:50;3.92;;;2.78;;
16320;SDS011;8269;50.990;4.494;2023-04-15T12:21:18;6.05;;;2.60;;
16320;SDS011;8269;50.990;4.494;2023-04-15T12:23:48;5.63;;;2.53;;
16320;SDS011;8269;50.990;4.494;2023-04-15T12:26:15;3.78;;;2.40;;
16320;SDS011;8269;50.990;4.494;2023-04-15T12:28:42;4.22;;;2.60;;
16320;SDS011;8269;50.990;4.494;2023-04-15T12:31:08;7.32;;;2.85;;
16320;SDS011;8269;50.990;4.494;2023-04-15T12:33:35;4.35;;;3.10;;
16320;SDS011;8269;50.990;4.494;2023-04-15T12:36:01;6.15;;;3.15;;
16320;SDS011;8269;50.990;4.494;2023-04-15T12:38:27;4.78;;;2.50;;
16320;SDS011;8269;50.990;4.494;2023-04-15T12:40:53;5.40;;;3.03;;
16320;SDS011;8269;50.990;4.494;2023-04-15T12:43:19;5.63;;;3.10;;
16320;SDS011;8269;50.990;4.494;2023-04-15T12:45:44;5.18;;;2.80;;
16320;SDS011;8269;50.990;4.494;2023-04-15T12:48:10;4.07;;;2.55;;
16320;SDS011;8269;50.990;4.494;2023-04-15T12:50:36;5.38;;;2.63;;
16320;SDS011;8269;50.990;4.494;2023-04-15T12:53:02;5.22;;;3.17;;
16320;SDS011;8269;50.990;4.494;2023-04-15T12:55:27;6.88;;;2.95;;
16320;SDS011;8269;50.990;4.494;2023-04-15T12:57:54;5.93;;;3.25;;
16320;SDS011;8269;50.990;4.494;2023-04-15T13:00:22;6.63;;;3.17;;
16320;SDS011;8269;50.990;4.494;2023-04-15T13:02:48;6.10;;;3.53;;
16320;SDS011;8269;50.990;4.494;2023-04-15T13:05:14;7.50;;;3.60;;
16320;SDS011;8269;50.990;4.494;2023-04-15T13:07:40;5.95;;;3.42;;
16320;SDS011;8269;50.990;4.494;2023-04-15T13:10:06;7.93;;;3.47;;
16320;SDS011;8269;50.990;4.494;2023-04-15T13:12:32;5.80;;;2.92;;
16320;SDS011;8269;50.990;4.494;2023-04-15T13:15:02;4.57;;;2.83;;
16320;SDS011;8269;50.990;4.494;2023-04-15T13:17:28;6.90;;;3.65;;
16320;SDS011;8269;50.990;4.494;2023-04-15T13:19:54;5.13;;;2.70;;
16320;SDS011;8269;50.990;4.494;2023-04-15T13:22:21;3.80;;;2.30;;
16320;SDS011;8269;50.990;4.494;2023-04-15T13:24:46;4.53;;;2.80;;
16320;SDS011;8269;50.990;4.494;2023-04-15T13:27:12;5.57;;;2.35;;
16320;SDS011;8269;50.990;4.494;2023-04-15T13:29:38;5.25;;;2.47;;
16320;SDS011;8269;50.990;4.494;2023-04-15T13:32:04;6.03;;;2.25;;
16320;SDS011;8269;50.990;4.494;2023-04-15T13:34:30;3.95;;;2.25;;
16320;SDS011;8269;50.990;4.494;2023-04-15T13:36:56;3.75;;;2.10;;
16320;SDS011;8269;50.990;4.494;2023-04-15T13:39:22;5.45;;;2.10;;
16320;SDS011;8269;50.990;4.494;2023-04-15T13:41:47;3.88;;;2.38;;
16320;SDS011;8269;50.990;4.494;2023-04-15T13:44:13;4.18;;;2.28;;
16320;SDS011;8269;50.990;4.494;2023-04-15T13:46:39;3.72;;;2.00;;
16320;SDS011;8269;50.990;4.494;2023-04-15T13:49:08;4.55;;;2.35;;
16320;SDS011;8269;50.990;4.494;2023-04-15T13:51:35;4.88;;;2.42;;
16320;SDS011;8269;50.990;4.494;2023-04-15T13:54:01;6.45;;;2.20;;
16320;SDS011;8269;50.990;4.494;2023-04-15T13:56:27;4.78;;;1.48;;
16320;SDS011;8269;50.990;4.494;2023-04-15T13:58:53;3.72;;;1.20;;
16320;SDS011;8269;50.990;4.494;2023-04-15T14:01:22;4.45;;;1.45;;
16320;SDS011;8269;50.990;4.494;2023-04-15T14:03:48;0.90;;;0.73;;
16320;SDS011;8269;50.990;4.494;2023-04-15T14:06:15;2.03;;;1.00;;
16320;SDS011;8269;50.990;4.494;2023-04-15T14:08:41;3.10;;;1.30;;
16320;SDS011;8269;50.990;4.494;2023-04-15T14:11:07;1.65;;;1.10;;
16320;SDS011;8269;50.990;4.494;2023-04-15T14:13:33;2.05;;;1.20;;
16320;SDS011;8269;50.990;4.494;2023-04-15T14:15:59;3.05;;;1.58;;
16320;SDS011;8269;50.990;4.494;2023-04-15T14:18:25;2.42;;;1.20;;
16320;SDS011;8269;50.990;4.494;2023-04-15T14:20:53;2.03;;;1.30;;
16320;SDS011;8269;50.990;4.494;2023-04-15T14:23:19;3.55;;;1.40;;
16320;SDS011;8269;50.990;4.494;2023-04-15T14:25:45;4.22;;;1.77;;
16320;SDS011;8269;50.990;4.494;2023-04-15T14:28:11;4.65;;;1.65;;
16320;SDS011;8269;50.990;4.494;2023-04-15T14:30:37;3.35;;;1.75;;
16320;SDS011;8269;50.990;4.494;2023-04-15T14:33:02;3.85;;;1.80;;
16320;SDS011;8269;50.990;4.494;2023-04-15T14:35:29;3.53;;;2.05;;
16320;SDS011;8269;50.990;4.494;2023-04-15T14:37:55;4.03;;;2.35;;
16320;SDS011;8269;50.990;4.494;2023-04-15T14:40:21;4.72;;;2.30;;
16320;SDS011;8269;50.990;4.494;2023-04-15T14:42:47;5.75;;;2.35;;
16320;SDS011;8269;50.990;4.494;2023-04-15T14:45:13;4.82;;;2.13;;
16320;SDS011;8269;50.990;4.494;2023-04-15T14:47:39;4.87;;;2.60;;
16320;SDS011;8269;50.990;4.494;2023-04-15T14:50:06;3.80;;;2.53;;
16320;SDS011;8269;50.990;4.494;2023-04-15T14:52:32;5.30;;;2.80;;
16320;SDS011;8269;50.990;4.494;2023-04-15T14:55:04;5.40;;;2.88;;
16320;SDS011;8269;50.990;4.494;2023-04-15T14:57:30;5.25;;;2.75;;
16320;SDS011;8269;50.990;4.494;2023-04-15T14:59:56;4.82;;;2.58;;
16320;SDS011;8269;50.990;4.494;2023-04-15T15:02:23;6.90;;;2.80;;
16320;SDS011;8269;50.990;4.494;2023-04-15T15:04:48;4.53;;;2.80;;
16320;SDS011;8269;50.990;4.494;2023-04-15T15:07:15;5.78;;;2.90;;
16320;SDS011;8269;50.990;4.494;2023-04-15T15:09:40;4.57;;;2.80;;
16320;SDS011;8269;50.990;4.494;2023-04-15T15:12:06;6.25;;;2.80;;
16320;SDS011;8269;50.990;4.494;2023-04-15T15:14:32;8.10;;;3.03;;
16320;SDS011;8269;50.990;4.494;2023-04-15T15:16:58;5.57;;;3.50;;
16320;SDS011;8269;50.990;4.494;2023-04-15T15:19:24;7.18;;;3.50;;
16320;SDS011;8269;50.990;4.494;2023-04-15T15:21:50;5.18;;;3.33;;
16320;SDS011;8269;50.990;4.494;2023-04-15T15:24:16;6.40;;;2.97;;
16320;SDS011;8269;50.990;4.494;2023-04-15T15:26:43;4.63;;;2.78;;
16320;SDS011;8269;50.990;4.494;2023-04-15T15:29:09;7.55;;;2.90;;
16320;SDS011;8269;50.990;4.494;2023-04-15T15:31:35;5.10;;;2.42;;
16320;SDS011;8269;50.990;4.494;2023-04-15T15:34:02;4.47;;;2.40;;
16320;SDS011;8269;50.990;4.494;2023-04-15T15:36:29;4.57;;;2.22;;
16320;SDS011;8269;50.990;4.494;2023-04-15T15:38:56;4.57;;;2.08;;
16320;SDS011;8269;50.990;4.494;2023-04-15T15:41:22;3.28;;;1.92;;
16320;SDS011;8269;50.990;4.494;2023-04-15T15:43:49;4.53;;;2.70;;
16320;SDS011;8269;50.990;4.494;2023-04-15T15:46:15;4.50;;;2.33;;
16320;SDS011;8269;50.990;4.494;2023-04-15T15:48:41;4.15;;;2.13;;
16320;SDS011;8269;50.990;4.494;2023-04-15T15:51:07;5.05;;;2.63;;
16320;SDS011;8269;50.990;4.494;2023-04-15T15:53:33;3.55;;;1.88;;
16320;SDS011;8269;50.990;4.494;2023-04-15T15:56:00;3.55;;;2.10;;
16320;SDS011;8269;50.990;4.494;2023-04-15T15:58:28;2.92;;;1.77;;